Alden, Iowa
Current Conditions -  °F | °C
As of 11:55 AM on Friday 31 Oct 2014 (Local Time) from KIFA Reporting Station
Clear Clear  
Wind Chill: 27°   Ceiling: Unl
Heat Index: 35°   Visibility: 10mi
Dew Point: 19°   Wind: 13mph
Humidity: 52%   Direction: 360°N
Pressure: 30.5"   Gusts: 18mph
Location:  42.52°N, 93.38°W
Report Text: KIFA 311655Z AUTO 36011G16KT 10SM CLR 02/M07 A3050 RMK AO2 T00191071
Loading
Personal Weather Stations






























Interactive Weather Map
Tropical Storm Tracking
New forecast layout! Learn more

10-Day Weather Forecast

Advertisements
Track Severe Weather on mobile